Aeroporto :
LOGIN :

Iscrizione | Disclaimer

   EN    FR    IT 

 










Sommario :    VFR   VFR Marginale   IFR   IFR Intensivo   IFR Molto Intensivo
Visibilità : 
Base nubi : 
>= 8 km
>= 3000ft
5 / 8 km
1000 / 3000 ft
1500m / 5 km
500 / 1000 ft
800 / 1500m
200 / 500 ft
< 800m
< 200 ft
Simboli :   Temporali  Nebbia  Neve Forte  Precipitazioni Forti  Vento > 20 kt
SIGMETs :   Varie  Temporali  Ghiacco  Turbolenza  Onda orograficha  Ceneri Vulcaniche






- Altitudine del aeroporto : 83 ft
- Codice IATA : LHR


EGLL - London Heathrow

ULTIMO METAR :
  • 242350Z AUTO 26012KT 9999 -RA SCT012/// SCT024/// BKN040/// //////CB 10/09 Q0995 RERA NOSIG

METARs OBSOLETI :
  • 242320Z AUTO 21008KT 4400 RA SCT015/// BKN022/// BKN028/// //////CB 11/10 Q0995 TEMPO 2000 +RA
  • 242250Z AUTO 21008KT 9999 SCT024 11/10 Q0996 TEMPO 4000 RA
  • 242220Z 21009KT 9999 FEW049 11/10 Q0995 TEMPO 4000 RA BKN012
  • 242150Z 23008KT 9999 -RA FEW040 11/10 Q0995
  • 242120Z AUTO 24011KT 9999 -RA //////CB 11/10 Q0995 RERA TEMPO RA

TAF TAF EGLL
Valido dal 25 a 00 ore il 26 a 06 ore UTC


242256Z 2500/2606 21012KT 9999 SCT025
PROB30
TEMPO 2505/2508 7000 SHRA
TEMPO 2508/2519 7000 SHRA
PROB30
TEMPO 2509/2518 21015G25KT 4000 +SHRA



MetMap, La meteo Aeronautica in un colpo d'occhio ! - Copyright ORBIFLY Dicembre 2007 - Disclaimer

ORBIFLY MET'MAP TEAM :

Programmazione e sviluppo : Alexandra Zaïnal
Concezione : Baudouin d'Aumeries
Aiuto per la programmazione : Marc-Olivier Méhu
Supporto tecnico e logistico : Manuel Goepfert
Aiuto per la traduzione : Arnaldo La Scala

Contatto : metmap@orbifly.com




FONTI E CREDITI :

   NOAA